Latest Weather Observations for Walpole North

IDW60801

Issued at 10:43 am WST Thursday 17 January 2019 (issued every 10 minutes, with the page automatically refreshed every 10 minutes)

About weather observations | Map of weather stations | Latest weather observations for WA | Other Formats
Station Details ID: 009998 Name: NORTH WALPOLE Lat: -34.95 Lon: 116.72 Height: 73.0 m
Data from the previous 72 hours. | See also: Recent months at Walpole North
Date/Time
WST
Temp
°C
App
Temp
°C
Dew
Point
°C
Rel
Hum
%
Delta-T
°C
Wind Press
QNH
hPa
Press
MSL
hPa
Rain since
9am
mm
Dir  Spd
km/h
Gust
km/h
Spd
kts
Gust
kts
17/10:30am 20.9 17.9 12.1 57 4.9 WSW 19 30 10 16 1013.7 1013.5 0.0
17/10:00am 20.6 18.9 13.6 64 4.0 WSW 15 24 8 13 1013.7 1013.5 0.0
17/09:30am 19.0 17.8 14.1 73 2.8 W 13 20 7 11 1013.6 1013.4 0.0
17/09:00am 17.9 15.9 14.0 78 2.2 WSW 17 24 9 13 1013.6 1013.4 0.0
17/08:30am 17.8 17.1 15.4 86 1.4 NW 13 19 7 10 1013.3 1013.1 0.0
17/08:00am 17.2 17.6 16.2 94 0.6 WNW 9 17 5 9 1013.2 1013.0 0.0
17/07:30am 16.4 15.7 16.4 100 0.0 NW 15 22 8 12 1013.0 1012.8 0.0
17/07:00am 16.2 15.1 15.4 95 0.5 NW 15 24 8 13 1012.7 1012.5 0.0
17/06:30am 16.1 15.5 15.6 97 0.3 NW 13 17 7 9 1012.6 1012.4 0.0
17/06:00am 15.5 15.2 15.5 100 0.0 NW 11 19 6 10 1012.6 1012.4 0.0
17/05:30am 15.2 14.8 15.2 100 0.0 NW 11 17 6 9 1012.4 1012.2 0.0
17/05:00am 15.2 14.8 15.2 100 0.0 WNW 11 15 6 8 1012.2 1012.0 0.0
17/04:30am 15.3 14.6 15.3 100 0.0 WNW 13 15 7 8 1011.8 1011.6 0.0
17/04:00am 15.0 15.3 15.0 100 0.0 NW 7 9 4 5 1011.4 1011.2 0.0
17/03:30am 15.5 15.6 15.5 100 0.0 WNW 9 11 5 6 1011.3 1011.1 0.0
17/03:00am 15.4 14.7 15.4 100 0.0 NW 13 17 7 9 1011.3 1011.1 0.0
17/02:30am 15.3 14.9 15.3 100 0.0 WNW 11 15 6 8 1011.3 1011.1 0.0
17/02:00am 15.1 15.1 15.1 100 0.0 WNW 9 13 5 7 1011.3 1011.1 0.0
17/01:30am 15.5 14.8 15.5 100 0.0 NW 13 17 7 9 1011.6 1011.4 0.0
17/01:00am 15.4 15.8 15.4 100 0.0 NW 7 11 4 6 1011.6 1011.4 0.0
17/12:30am 15.7 15.9 15.7 100 0.0 NW 9 17 5 9 1011.9 1011.7 0.0
17/12:00am 15.6 16.1 15.6 100 0.0 WNW 7 9 4 5 1012.0 1011.8 0.0
 
Date/Time
WST
Temp
°C
App
Temp
°C
Dew
Point
°C
Rel
Hum
%
Delta-T
°C
Wind Press
QNH
hPa
Press
MSL
hPa
Rain since
9am
mm
Dir  Spd
km/h
Gust
km/h
Spd
kts
Gust
kts
16/11:30pm 15.8 15.6 15.8 100 0.0 NW 11 15 6 8 1012.1 1011.9 0.0
16/11:00pm 15.7 15.8 15.5 99 0.1 NNW 9 15 5 8 1012.1 1011.9 0.0
16/10:30pm 16.2 15.0 14.0 87 1.3 NW 13 20 7 11 1012.3 1012.1 0.0
16/10:00pm 15.8 15.7 14.0 89 1.0 WSW 7 7 4 4 1012.4 1012.2 0.0
16/09:30pm 15.6 15.2 12.9 84 1.5 WNW 7 11 4 6 1012.4 1012.2 0.0
16/09:00pm 16.3 15.7 13.6 84 1.5 WNW 9 11 5 6 1012.3 1012.1 0.0
16/08:30pm 15.9 15.1 13.0 83 1.6 WNW 9 13 5 7 1012.4 1012.2 0.0
16/08:00pm 16.4 15.6 12.8 79 2.0 WNW 9 13 5 7 1012.4 1012.2 0.0
16/07:30pm 17.3 15.7 12.8 75 2.5 W 13 17 7 9 1012.3 1012.1 0.0
16/07:00pm 18.4 16.4 12.6 69 3.2 W 15 26 8 14 1012.0 1011.8 0.0
16/06:30pm 18.5 16.4 12.3 67 3.5 W 15 24 8 13 1011.7 1011.5 0.0
16/06:00pm 19.2 16.5 11.7 62 4.2 WNW 17 24 9 13 1011.5 1011.3 0.0
16/05:30pm 20.1 17.5 12.1 60 4.5 W 17 28 9 15 1011.3 1011.1 0.0
16/05:00pm 20.5 17.1 11.2 55 5.1 WSW 20 30 11 16 1011.2 1011.0 0.0
16/04:30pm 21.5 18.5 12.1 55 5.3 W 19 28 10 15 1011.4 1011.2 0.0
16/04:00pm 22.1 19.5 12.1 53 5.7 WSW 17 28 9 15 1011.4 1011.2 0.0
16/03:30pm 22.6 19.7 12.3 52 5.9 W 19 33 10 18 1011.5 1011.3 0.0
16/03:00pm 22.0 18.7 10.8 49 6.2 W 19 33 10 18 1011.5 1011.3 0.0
16/02:30pm 22.6 19.2 11.4 49 6.3 W 20 35 11 19 1011.6 1011.4 0.0
16/02:00pm 22.5 19.6 10.9 48 6.4 W 17 26 9 14 1011.8 1011.6 0.0
16/01:30pm 22.3 19.4 11.1 49 6.2 SW 17 28 9 15 1012.1 1011.9 0.0
16/01:00pm 22.7 19.4 10.8 47 6.6 SW 19 28 10 15 1012.1 1011.9 0.0
16/12:30pm 22.4 19.6 11.2 49 6.2 SW 17 32 9 17 1012.6 1012.4 0.0
16/12:00pm 23.0 20.3 11.7 49 6.4 WSW 17 26 9 14 1012.7 1012.5 0.0
16/11:30am 20.6 18.5 11.2 55 5.2 W 13 20 7 11 1012.8 1012.6 0.0
16/11:00am 20.0 18.9 11.8 59 4.6 WSW 9 20 5 11 1013.0 1012.8 0.0
16/10:30am 20.1 18.2 11.8 59 4.6 W 13 20 7 11 1013.0 1012.8 0.0
16/10:00am 19.6 17.0 11.9 61 4.3 WSW 17 24 9 13 1013.2 1013.0 0.0
16/09:30am 18.4 16.1 11.7 65 3.7 W 15 22 8 12 1013.3 1013.1 0.0
16/09:00am 18.3 17.1 11.6 65 3.7 WNW 9 15 5 8 1013.4 1013.2 0.0
16/08:30am 18.5 17.1 12.3 67 3.5 NW 11 19 6 10 1013.2 1013.0 0.0
16/08:00am 17.5 16.8 12.0 70 3.0 WNW 7 13 4 7 1013.1 1012.9 0.0
16/07:30am 15.9 16.0 12.8 82 1.7 S 4 7 2 4 1013.3 1013.1 0.0
16/07:00am 14.9 15.7 13.6 92 0.7 SE 2 6 1 3 1013.0 1012.8 0.0
16/06:30am 13.5 14.6 13.5 100 0.0 CALM 0 0 0 0 1012.8 1012.6 0.0
16/06:00am 11.6 11.0 11.6 100 0.0 SE 6 7 3 4 1012.9 1012.7 0.0
16/05:30am 10.7 10.9 10.7 100 0.0 CALM 0 0 0 0 1012.9 1012.7 0.0
16/05:00am 11.4 11.8 11.4 100 0.0 CALM 0 0 0 0 1012.8 1012.6 0.0
16/04:30am 11.5 12.0 11.5 100 0.0 CALM 0 0 0 0 1012.7 1012.5 0.0
16/04:00am 11.9 11.3 11.7 99 0.1 SE 6 6 3 3 1012.8 1012.6 0.0
16/03:30am 11.7 12.2 11.5 99 0.1 CALM 0 0 0 0 1012.8 1012.6 0.0
16/03:00am 12.3 13.0 12.1 99 0.1 CALM 0 0 0 0 1012.9 1012.7 0.0
16/02:30am 12.0 12.2 11.8 99 0.1 SE 2 6 1 3 1013.0 1012.8 0.0
16/02:00am 12.4 12.9 11.6 95 0.4 CALM 0 0 0 0 1013.0 1012.8 0.0
16/01:30am 13.0 13.5 11.7 92 0.7 CALM 0 2 0 1 1013.0 1012.8 0.0
16/01:00am 13.5 13.6 11.4 87 1.1 SE 2 6 1 3 1013.6 1013.4 0.0
16/12:30am 13.8 14.4 11.8 88 1.1 CALM 0 0 0 0 1013.9 1013.7 0.0
16/12:00am 13.9 14.5 11.9 88 1.1 CALM 0 0 0 0 1014.1 1013.9 0.0
 
Date/Time
WST
Temp
°C
App
Temp
°C
Dew
Point
°C
Rel
Hum
%
Delta-T
°C
Wind Press
QNH
hPa
Press
MSL
hPa
Rain since
9am
mm
Dir  Spd
km/h
Gust
km/h
Spd
kts
Gust
kts
15/11:30pm 13.4 13.9 11.5 88 1.0 CALM 0 0 0 0 1014.3 1014.1 0.0
15/11:00pm 13.4 13.9 11.5 88 1.0 CALM 0 0 0 0 1014.4 1014.2 0.0
15/10:30pm 13.5 13.9 11.4 87 1.1 CALM 0 0 0 0 1014.4 1014.2 0.0
15/10:00pm 14.1 14.5 11.4 84 1.4 CALM 0 0 0 0 1014.7 1014.5 0.0
15/09:30pm 14.9 15.3 11.3 79 1.9 CALM 0 0 0 0 1014.6 1014.4 0.0
15/09:00pm 15.8 15.5 11.4 75 2.4 SE 4 7 2 4 1014.4 1014.2 0.0
15/08:30pm 16.4 15.7 11.3 72 2.8 S 6 11 3 6 1014.3 1014.1 0.0
15/08:00pm 16.6 15.9 11.5 72 2.8 SSE 6 11 3 6 1014.2 1014.0 0.0
15/07:30pm 16.9 16.1 11.6 71 2.9 SSE 7 13 4 7 1014.1 1013.9 0.0
15/07:00pm 17.2 16.5 11.5 69 3.1 S 6 13 3 7 1014.1 1013.9 0.0
15/06:30pm 17.7 16.4 11.3 66 3.5 SSE 9 13 5 7 1014.0 1013.8 0.0
15/06:00pm 17.7 15.9 11.0 65 3.6 SSE 11 20 6 11 1013.9 1013.7 0.0
15/05:30pm 18.1 16.3 9.5 57 4.5 SSE 9 15 5 8 1013.8 1013.6 0.0
15/05:00pm 18.5 16.4 9.6 56 4.7 SSE 11 20 6 11 1013.8 1013.6 0.0
15/04:30pm 18.9 16.4 9.7 55 4.9 SSE 13 20 7 11 1013.8 1013.6 0.0
15/04:00pm 19.2 16.8 9.9 55 5.0 SSE 13 26 7 14 1013.9 1013.7 0.0
15/03:30pm 19.1 16.7 9.9 55 4.9 SSE 13 19 7 10 1014.0 1013.8 0.0
15/03:00pm 19.1 17.0 11.2 60 4.3 S 13 22 7 12 1014.2 1014.0 0.0
15/02:30pm 18.6 16.1 10.9 61 4.2 SSE 15 22 8 12 1014.3 1014.1 0.0
15/02:00pm 18.6 16.7 11.7 64 3.8 SSE 13 20 7 11 1014.5 1014.3 0.0
15/01:30pm 18.4 16.5 11.7 65 3.7 SSE 13 19 7 10 1014.7 1014.5 0.0
15/01:00pm 18.6 16.6 11.4 63 3.9 SSE 13 24 7 13 1014.9 1014.7 0.0
15/12:30pm 18.9 17.4 11.9 64 3.9 SSE 11 20 6 11 1015.2 1015.0 0.0
15/12:00pm 18.4 16.9 11.9 66 3.6 SSE 11 15 6 8 1015.4 1015.2 0.0
15/11:30am 18.2 15.5 11.7 66 3.6 SE 17 22 9 12 1015.6 1015.4 0.0
15/11:00am 18.8 17.3 11.9 64 3.8 SSE 11 19 6 10 1015.7 1015.5 0.0
15/10:30am 18.7 17.8 11.5 63 4.0 E 7 13 4 7 1015.8 1015.6 0.0
15/10:00am 18.1 17.5 11.7 66 3.5 S 6 9 3 5 1015.8 1015.6 0.0
15/09:30am 17.5 15.8 11.1 66 3.5 SE 11 17 6 9 1016.0 1015.8 0.0
15/09:00am 17.6 16.3 11.4 67 3.4 ESE 9 13 5 7 1016.1 1015.9 0.0
15/08:30am 17.4 16.5 10.8 65 3.6 NE 6 9 3 5 1016.1 1015.9 0.0
15/08:00am 17.5 16.6 11.3 67 3.4 NE 7 13 4 7 1016.1 1015.9 0.0
15/07:30am 16.7 16.4 11.4 71 2.9 SW 4 7 2 4 1016.1 1015.9 0.0
15/07:00am 15.0 15.6 11.8 81 1.7 CALM 0 0 0 0 1015.9 1015.7 0.0
15/06:30am 13.8 14.2 11.1 84 1.4 CALM 0 0 0 0 1015.5 1015.3 0.0
15/06:00am 13.4 13.7 10.9 85 1.3 CALM 0 0 0 0 1015.2 1015.0 0.0
15/05:30am 12.6 12.8 10.5 87 1.1 CALM 0 0 0 0 1015.0 1014.8 0.0
15/05:00am 13.2 13.6 11.1 87 1.1 CALM 0 0 0 0 1015.0 1014.8 0.0
15/04:30am 14.0 14.5 11.5 85 1.3 CALM 0 0 0 0 1015.0 1014.8 0.0
15/04:00am 14.4 14.8 11.2 81 1.7 CALM 0 0 0 0 1015.0 1014.8 0.0
15/03:30am 14.5 13.6 10.7 78 2.0 ESE 6 7 3 4 1014.8 1014.6 0.0
15/03:00am 14.6 15.0 11.4 81 1.7 CALM 0 0 0 0 1014.9 1014.7 0.0
15/02:30am 15.0 15.3 11.0 77 2.1 CALM 0 0 0 0 1015.2 1015.0 0.0
15/02:00am 15.0 14.6 11.2 78 2.0 ESE 4 6 2 3 1015.4 1015.2 0.0
15/01:30am 15.2 14.3 10.8 75 2.3 ESE 6 7 3 4 1015.7 1015.5 0.0
15/01:00am 15.3 14.2 10.5 73 2.5 ESE 7 9 4 5 1015.9 1015.7 0.0
15/12:30am 15.5 14.4 10.5 72 2.6 ESE 7 11 4 6 1016.1 1015.9 0.0
15/12:00am 15.6 14.5 10.6 72 2.7 ESE 7 11 4 6 1016.4 1016.2 0.0
 
Date/Time
WST
Temp
°C
App
Temp
°C
Dew
Point
°C
Rel
Hum
%
Delta-T
°C
Wind Press
QNH
hPa
Press
MSL
hPa
Rain since
9am
mm
Dir  Spd
km/h
Gust
km/h
Spd
kts
Gust
kts
14/11:30pm 15.7 14.6 10.5 71 2.8 SE 7 13 4 7 1016.5 1016.3 0.0
14/11:00pm 15.9 13.5 10.2 69 3.0 SE 13 19 7 10 1016.7 1016.5 0.0
14/10:30pm 15.9 13.9 10.0 68 3.1 ESE 11 13 6 7 1016.8 1016.6 0.0
14/10:00pm 16.1 13.7 10.0 67 3.2 SE 13 17 7 9 1017.1 1016.9 0.0
14/09:30pm 16.1 13.9 9.5 65 3.4 SE 11 15 6 8 1017.1 1016.9 0.0
14/09:00pm 16.2 13.7 9.6 65 3.4 SE 13 19 7 10 1017.2 1017.0 0.0
14/08:30pm 16.2 14.4 9.4 64 3.5 SSE 9 15 5 8 1016.9 1016.7 0.0
14/08:00pm 16.2 14.8 9.6 65 3.4 SE 7 19 4 10 1016.6 1016.4 0.0
14/07:30pm 16.4 14.4 10.0 66 3.4 SSE 11 17 6 9 1016.1 1015.9 0.0
14/07:00pm 16.6 14.2 10.2 66 3.4 SSE 13 24 7 13 1015.8 1015.6 0.0
14/06:30pm 16.9 13.7 10.1 64 3.6 SSE 17 24 9 13 1015.4 1015.2 0.0
14/06:00pm 17.1 14.2 9.8 62 3.8 SSE 15 24 8 13 1015.3 1015.1 0.0
14/05:30pm 17.5 14.7 9.9 61 4.0 SSE 15 28 8 15 1015.2 1015.0 0.0
14/05:00pm 18.2 15.5 10.3 60 4.2 SSE 15 28 8 15 1015.0 1014.8 0.0
14/04:30pm 18.7 16.0 10.5 59 4.4 S 15 22 8 12 1015.0 1014.8 0.0
14/04:00pm 19.8 16.9 11.0 57 4.8 S 17 28 9 15 1015.0 1014.8 0.0
14/03:30pm 18.8 15.4 10.6 59 4.4 SSE 19 33 10 18 1014.8 1014.6 0.0
14/03:00pm 20.4 17.6 11.3 56 5.0 SSE 17 30 9 16 1015.0 1014.8 0.0
14/02:30pm 20.3 17.8 11.0 55 5.1 SSE 15 28 8 15 1015.2 1015.0 0.0
14/02:00pm 20.8 18.0 11.4 55 5.2 SSE 17 28 9 15 1015.3 1015.1 0.0
14/01:30pm 21.0 18.1 11.1 53 5.5 SSE 17 28 9 15 1015.4 1015.2 0.0
14/01:00pm 19.8 16.5 11.0 57 4.8 SSE 19 30 10 16 1015.8 1015.6 0.0
14/12:30pm 19.9 17.1 11.4 58 4.7 SSE 17 30 9 16 1016.0 1015.8 0.0
14/12:00pm 19.6 16.7 10.9 57 4.7 SSE 17 30 9 16 1016.2 1016.0 0.0
14/11:30am 20.2 17.7 11.1 56 5.0 SSE 15 28 8 15 1016.5 1016.3 0.0
14/11:00am 18.8 15.6 10.1 57 4.7 SSE 17 28 9 15 1016.5 1016.3 0.0

Other Formats:

Comma delimited format used in spreadsheet applications
http://www.bom.gov.au/fwo/IDW60801/IDW60801.95647.axf

JavaScript Object Notation format (JSON) in row-major order
http://www.bom.gov.au/fwo/IDW60801/IDW60801.95647.json